createdAt,value
2022-11-19T00:01:28.403Z,2.87
2022-11-19T00:03:55.625Z,2.70
2022-11-19T00:06:27.816Z,2.77
2022-11-19T00:08:55.540Z,2.53
2022-11-19T00:11:44.102Z,2.80
2022-11-19T00:14:14.148Z,2.70
2022-11-19T00:16:41.517Z,2.50
2022-11-19T00:19:09.877Z,2.47
2022-11-19T00:21:36.837Z,3.07
2022-11-19T00:24:03.779Z,2.90
2022-11-19T00:26:30.756Z,3.27
2022-11-19T00:28:57.590Z,2.70
2022-11-19T00:31:25.272Z,2.70
2022-11-19T00:33:54.258Z,2.90
2022-11-19T00:36:25.582Z,2.53
2022-11-19T00:38:52.345Z,2.83
2022-11-19T00:41:19.034Z,3.23
2022-11-19T00:43:50.317Z,2.60
2022-11-19T00:46:22.796Z,3.10
2022-11-19T00:48:51.886Z,2.70
2022-11-19T00:51:20.424Z,2.70
2022-11-19T00:53:47.580Z,3.20
2022-11-19T00:56:17.926Z,2.90
2022-11-19T00:58:45.298Z,2.93
2022-11-19T01:01:14.223Z,2.80
2022-11-19T01:03:44.145Z,2.80
2022-11-19T01:06:15.283Z,3.10
2022-11-19T01:08:46.338Z,3.17
2022-11-19T01:11:18.998Z,2.77
2022-11-19T01:13:46.808Z,2.83
2022-11-19T01:16:17.933Z,3.60
2022-11-19T01:18:47.314Z,3.20
2022-11-19T01:21:15.554Z,2.77
2022-11-19T01:23:43.658Z,2.70
2022-11-19T01:26:12.020Z,3.10
2022-11-19T01:28:39.318Z,2.80
2022-11-19T01:31:12.224Z,3.20
2022-11-19T01:33:39.377Z,3.50
2022-11-19T01:36:13.773Z,3.27
2022-11-19T01:38:40.866Z,3.27
2022-11-19T01:41:08.456Z,3.30
2022-11-19T01:43:59.997Z,3.30
2022-11-19T01:46:29.294Z,3.20
2022-11-19T01:49:11.384Z,3.23
2022-11-19T01:51:41.189Z,3.43
2022-11-19T01:54:44.199Z,3.20
2022-11-19T01:57:14.422Z,3.13
2022-11-19T01:59:43.540Z,3.03
2022-11-19T02:02:10.855Z,3.53
2022-11-19T02:04:38.942Z,3.40
2022-11-19T02:07:07.430Z,3.40
2022-11-19T02:09:34.652Z,3.50
2022-11-19T02:12:20.256Z,3.50
2022-11-19T02:15:12.372Z,3.83
2022-11-19T02:17:39.065Z,3.50
2022-11-19T02:20:24.766Z,3.37
2022-11-19T02:23:10.063Z,3.80
2022-11-19T02:25:39.814Z,3.37
2022-11-19T02:28:42.946Z,3.43
2022-11-19T02:31:38.486Z,3.80
2022-11-19T02:34:09.831Z,3.80
2022-11-19T02:36:43.158Z,3.83
2022-11-19T02:39:32.546Z,3.70
2022-11-19T02:42:22.851Z,3.90
2022-11-19T02:45:17.974Z,3.80
2022-11-19T02:47:48.033Z,3.70
2022-11-19T02:50:28.882Z,3.70
2022-11-19T02:52:56.724Z,3.60
2022-11-19T02:55:23.878Z,3.77
2022-11-19T02:58:03.196Z,3.90
2022-11-19T03:00:58.943Z,4.07
2022-11-19T03:03:44.243Z,4.40
2022-11-19T03:06:26.300Z,4.07
2022-11-19T03:08:53.359Z,4.13
2022-11-19T03:11:26.781Z,3.97
2022-11-19T03:14:30.773Z,4.30
2022-11-19T03:17:07.213Z,4.37
2022-11-19T03:19:45.772Z,4.47
2022-11-19T03:22:29.956Z,4.03
2022-11-19T03:25:07.965Z,3.97
2022-11-19T03:27:44.475Z,4.10
2022-11-19T03:30:12.950Z,4.07
2022-11-19T03:33:07.136Z,4.47
2022-11-19T03:35:40.667Z,4.33
2022-11-19T03:38:13.788Z,4.20
2022-11-19T03:40:42.370Z,4.00
2022-11-19T03:43:13.298Z,4.57
2022-11-19T03:45:44.396Z,3.97
2022-11-19T03:48:15.194Z,4.03
2022-11-19T03:50:58.298Z,3.47
2022-11-19T03:53:26.444Z,3.70
2022-11-19T03:56:21.819Z,4.30
2022-11-19T03:58:48.580Z,4.00
2022-11-19T04:01:16.155Z,4.03
2022-11-19T04:04:03.138Z,3.70
2022-11-19T04:06:29.918Z,4.33
2022-11-19T04:08:59.272Z,4.67
2022-11-19T04:13:51.888Z,4.40
2022-11-19T04:16:18.593Z,3.97
2022-11-19T04:18:45.573Z,4.43
2022-11-19T04:21:12.605Z,4.30
2022-11-19T04:23:39.580Z,4.07
2022-11-19T04:26:06.642Z,4.33
2022-11-19T04:28:33.414Z,3.97
2022-11-19T04:31:00.333Z,4.30
2022-11-19T04:33:27.321Z,4.73
2022-11-19T04:35:54.275Z,3.97
2022-11-19T04:38:21.180Z,4.40
2022-11-19T04:40:50.606Z,4.63
2022-11-19T04:43:17.355Z,3.67
2022-11-19T04:45:44.117Z,4.03
2022-11-19T04:48:11.115Z,3.80
2022-11-19T04:50:38.126Z,4.00
2022-11-19T04:53:04.852Z,3.83
2022-11-19T04:55:31.565Z,4.40
2022-11-19T04:57:58.610Z,4.30
2022-11-19T05:00:25.369Z,4.67
2022-11-19T05:02:52.317Z,4.40
2022-11-19T05:05:19.018Z,4.37
2022-11-19T05:07:46.475Z,4.23
2022-11-19T05:10:13.711Z,4.10
2022-11-19T05:12:40.636Z,4.27
2022-11-19T05:15:08.219Z,4.50
2022-11-19T05:17:34.983Z,3.70
2022-11-19T05:20:02.426Z,4.47
2022-11-19T05:22:29.131Z,4.70
2022-11-19T05:24:59.535Z,3.90
2022-11-19T05:27:26.302Z,4.40
2022-11-19T05:29:53.243Z,4.40
2022-11-19T05:32:21.208Z,4.10
2022-11-19T05:34:48.706Z,4.07
2022-11-19T05:37:15.708Z,3.90
2022-11-19T05:39:42.457Z,4.30
2022-11-19T05:42:09.180Z,3.90
2022-11-19T05:44:36.174Z,4.47
2022-11-19T05:47:02.924Z,4.37
2022-11-19T05:49:29.876Z,4.13
2022-11-19T05:51:59.553Z,3.87
2022-11-19T05:54:26.635Z,3.63
2022-11-19T05:56:53.386Z,3.90
2022-11-19T05:59:21.619Z,3.90
2022-11-19T06:01:51.870Z,4.13
2022-11-19T06:04:18.679Z,4.50
2022-11-19T06:06:45.835Z,4.23
2022-11-19T06:09:12.570Z,4.10
2022-11-19T06:11:48.384Z,3.80
2022-11-19T06:14:16.620Z,4.10
2022-11-19T06:16:43.663Z,4.13
2022-11-19T06:19:10.842Z,4.07
2022-11-19T06:21:37.559Z,4.03
2022-11-19T06:24:07.783Z,4.10
2022-11-19T06:26:34.634Z,3.87
2022-11-19T06:29:01.733Z,4.33
2022-11-19T06:31:28.539Z,4.17
2022-11-19T06:33:55.551Z,4.07
2022-11-19T06:36:27.454Z,3.63
2022-11-19T06:38:54.748Z,3.77
2022-11-19T06:41:21.516Z,3.70
2022-11-19T06:43:50.988Z,4.30
2022-11-19T06:46:17.770Z,4.70
2022-11-19T06:48:44.731Z,4.27
2022-11-19T06:51:11.528Z,3.83
2022-11-19T06:53:38.620Z,3.90
2022-11-19T06:56:08.368Z,3.77
2022-11-19T06:58:35.531Z,3.67
2022-11-19T07:01:02.469Z,3.87
2022-11-19T07:03:29.539Z,4.33
2022-11-19T07:05:59.618Z,4.40
2022-11-19T07:08:26.894Z,3.80
2022-11-19T07:10:54.315Z,4.03
2022-11-19T07:13:21.095Z,4.07
2022-11-19T07:15:48.060Z,3.70
2022-11-19T07:18:14.886Z,3.70
2022-11-19T07:20:41.864Z,4.03
2022-11-19T07:23:13.263Z,3.93
2022-11-19T07:25:40.323Z,4.20
2022-11-19T07:28:08.482Z,4.10
2022-11-19T07:30:35.439Z,4.03
2022-11-19T07:33:02.388Z,4.00
2022-11-19T07:35:29.142Z,3.90
2022-11-19T07:37:56.067Z,3.30
2022-11-19T07:40:22.788Z,4.13
2022-11-19T07:42:49.528Z,3.67
2022-11-19T07:45:22.247Z,3.80
2022-11-19T07:47:49.570Z,3.77
2022-11-19T07:50:17.457Z,4.07
2022-11-19T07:52:44.544Z,4.20
2022-11-19T07:55:11.702Z,3.80
2022-11-19T07:57:38.689Z,4.00
2022-11-19T08:00:08.796Z,4.13
2022-11-19T08:02:36.867Z,3.80
2022-11-19T08:05:04.104Z,4.30
2022-11-19T08:07:31.178Z,4.23
2022-11-19T08:09:58.012Z,3.93
2022-11-19T08:12:24.772Z,3.90
2022-11-19T08:14:51.745Z,4.10
2022-11-19T08:17:36.960Z,4.03
2022-11-19T08:20:04.283Z,4.20
2022-11-19T08:22:34.248Z,3.67
2022-11-19T08:25:00.968Z,4.20
2022-11-19T08:27:27.940Z,4.10
2022-11-19T08:29:56.228Z,3.80
2022-11-19T08:32:23.272Z,4.10
2022-11-19T08:34:50.352Z,3.93
2022-11-19T08:37:17.066Z,4.33
2022-11-19T08:39:43.803Z,3.77
2022-11-19T08:42:29.184Z,3.67
2022-11-19T08:44:56.059Z,4.40
2022-11-19T08:47:22.848Z,3.97
2022-11-19T08:49:49.850Z,3.63
2022-11-19T08:52:16.546Z,4.10
2022-11-19T08:54:43.329Z,3.90
2022-11-19T08:57:10.348Z,3.97
2022-11-19T08:59:37.110Z,3.93
2022-11-19T09:02:03.858Z,3.83
2022-11-19T09:04:30.914Z,3.97
2022-11-19T09:07:00.732Z,3.87
2022-11-19T09:09:27.461Z,3.83
2022-11-19T09:11:55.900Z,4.10
2022-11-19T09:14:22.751Z,3.97
2022-11-19T09:16:49.606Z,3.80
2022-11-19T09:19:16.599Z,3.97
2022-11-19T09:21:44.878Z,3.90
2022-11-19T09:24:11.892Z,4.00
2022-11-19T09:26:38.629Z,3.47
2022-11-19T09:29:05.422Z,4.00
2022-11-19T09:31:33.740Z,3.70
2022-11-19T09:34:00.759Z,3.93
2022-11-19T09:36:27.513Z,3.90
2022-11-19T09:38:58.871Z,3.53
2022-11-19T09:41:31.430Z,3.57
2022-11-19T09:44:14.725Z,4.00
2022-11-19T09:47:06.173Z,3.47
2022-11-19T09:49:44.880Z,3.60
2022-11-19T09:52:16.791Z,4.30
2022-11-19T09:54:54.677Z,3.73
2022-11-19T09:57:38.071Z,3.97
2022-11-19T10:00:08.402Z,3.73
2022-11-19T10:02:35.220Z,4.07
2022-11-19T10:05:03.740Z,3.47
2022-11-19T10:07:38.290Z,4.03
2022-11-19T10:10:41.187Z,3.53
2022-11-19T10:13:17.708Z,3.67
2022-11-19T10:16:20.087Z,3.67
2022-11-19T10:19:19.355Z,3.33
2022-11-19T10:22:15.644Z,3.90
2022-11-19T10:24:45.025Z,3.50
2022-11-19T10:27:30.460Z,3.50
2022-11-19T10:30:02.097Z,3.90
2022-11-19T10:32:47.370Z,4.00
2022-11-19T10:35:23.029Z,3.47
2022-11-19T10:38:02.480Z,3.70
2022-11-19T10:40:37.081Z,3.93
2022-11-19T10:43:26.274Z,3.40
2022-11-19T10:45:56.051Z,3.60
2022-11-19T10:48:50.048Z,3.47
2022-11-19T10:51:27.677Z,3.70
2022-11-19T10:53:58.448Z,3.70
2022-11-19T10:56:38.573Z,3.40
2022-11-19T10:59:27.347Z,3.90
2022-11-19T11:02:01.550Z,3.03
2022-11-19T11:04:30.339Z,3.43
2022-11-19T11:06:57.949Z,3.77
2022-11-19T11:09:41.164Z,3.30
2022-11-19T11:12:44.962Z,3.63
2022-11-19T11:15:19.937Z,3.53
2022-11-19T11:17:47.787Z,3.60
2022-11-19T11:20:17.460Z,3.97
2022-11-19T11:22:50.534Z,3.20
2022-11-19T11:25:29.517Z,3.17
2022-11-19T11:28:13.165Z,3.30
2022-11-19T11:31:01.923Z,3.70
2022-11-19T11:33:40.165Z,3.57
2022-11-19T11:36:20.126Z,3.60
2022-11-19T11:38:50.743Z,3.70
2022-11-19T11:44:47.437Z,3.47
2022-11-19T11:47:20.369Z,3.57
2022-11-19T11:49:55.698Z,3.50
2022-11-19T11:52:43.263Z,3.40
2022-11-19T11:55:29.436Z,3.83
2022-11-19T11:58:05.643Z,3.40
2022-11-19T12:00:41.184Z,3.13
2022-11-19T12:03:11.002Z,3.30
2022-11-19T12:05:44.907Z,3.37
2022-11-19T12:08:16.675Z,3.40
2022-11-19T12:11:01.957Z,3.57
2022-11-19T12:13:41.182Z,3.40
2022-11-19T12:16:15.760Z,3.80
2022-11-19T12:19:00.530Z,3.30
2022-11-19T12:21:39.125Z,3.70
2022-11-19T12:24:44.500Z,3.60
2022-11-19T12:27:11.177Z,3.50
2022-11-19T12:29:51.569Z,3.33
2022-11-19T12:32:45.460Z,3.37
2022-11-19T12:35:31.069Z,2.87
2022-11-19T12:38:22.239Z,3.37
2022-11-19T12:41:06.461Z,3.30
2022-11-19T12:43:54.543Z,3.63
2022-11-19T12:46:34.651Z,3.27
2022-11-19T12:49:20.215Z,3.70
2022-11-19T12:52:25.064Z,2.90
2022-11-19T12:55:19.177Z,3.30
2022-11-19T12:58:05.991Z,2.93
2022-11-19T13:00:40.949Z,3.47
2022-11-19T13:03:15.343Z,3.50
2022-11-19T13:06:08.801Z,3.33
2022-11-19T13:08:39.726Z,3.00
2022-11-19T13:11:21.745Z,3.43
2022-11-19T13:13:58.769Z,3.10
2022-11-19T13:16:27.607Z,3.27
2022-11-19T13:19:07.466Z,3.57
2022-11-19T13:21:52.066Z,3.10
2022-11-19T13:24:25.186Z,3.30
2022-11-19T13:26:54.493Z,3.23
2022-11-19T13:29:47.016Z,3.00
2022-11-19T13:32:43.656Z,3.30
2022-11-19T13:35:13.092Z,3.50
2022-11-19T13:37:51.689Z,3.53
2022-11-19T13:40:39.535Z,3.17
2022-11-19T13:43:32.991Z,4.20
2022-11-19T13:46:21.892Z,3.50
2022-11-19T13:49:27.397Z,3.07
2022-11-19T13:52:11.765Z,3.40
2022-11-19T13:54:41.018Z,3.50
2022-11-19T13:57:24.534Z,3.30
2022-11-19T14:00:01.592Z,3.37
2022-11-19T14:02:43.404Z,3.33
2022-11-19T14:05:33.916Z,3.20
2022-11-19T14:08:06.636Z,3.63
2022-11-19T14:10:57.037Z,3.40
2022-11-19T14:13:39.550Z,3.10
2022-11-19T14:16:40.059Z,3.37
2022-11-19T14:19:32.881Z,3.30
2022-11-19T14:22:19.987Z,2.90
2022-11-19T14:25:05.485Z,3.57
2022-11-19T14:27:33.589Z,3.50
2022-11-19T14:30:04.965Z,3.47
2022-11-19T14:32:52.370Z,3.47
2022-11-19T14:35:33.712Z,3.73
2022-11-19T14:38:19.309Z,3.73
2022-11-19T14:40:46.811Z,3.33
2022-11-19T14:43:42.340Z,3.90
2022-11-19T14:46:15.525Z,3.27
2022-11-19T14:48:42.292Z,3.67
2022-11-19T14:51:17.832Z,3.30
2022-11-19T14:53:52.529Z,3.33
2022-11-19T14:56:22.505Z,3.63
2022-11-19T14:58:59.837Z,3.30
2022-11-19T15:01:27.020Z,3.30
2022-11-19T15:04:07.891Z,3.50
2022-11-19T15:06:36.774Z,3.97
2022-11-19T15:09:04.511Z,3.60
2022-11-19T15:11:56.577Z,3.30
2022-11-19T15:14:29.447Z,2.90
2022-11-19T15:17:16.524Z,3.40
2022-11-19T15:20:05.386Z,3.00
2022-11-19T15:22:44.328Z,3.20
2022-11-19T15:25:33.258Z,3.70
2022-11-19T15:28:00.183Z,3.30
2022-11-19T15:30:42.125Z,3.23
2022-11-19T15:33:09.128Z,3.10
2022-11-19T15:36:00.828Z,3.37
2022-11-19T15:38:52.535Z,3.17
2022-11-19T15:41:24.492Z,3.20
2022-11-19T15:43:58.642Z,2.67
2022-11-19T15:46:39.220Z,3.40
2022-11-19T15:49:25.024Z,3.17
2022-11-19T15:52:17.897Z,3.30
2022-11-19T15:54:45.171Z,3.23
2022-11-19T15:57:25.878Z,3.30
2022-11-19T16:00:00.881Z,3.23
2022-11-19T16:02:37.743Z,2.97
2022-11-19T16:05:06.326Z,3.00
2022-11-19T16:07:33.459Z,2.83
2022-11-19T16:10:00.714Z,3.43
2022-11-19T16:12:47.419Z,3.30
2022-11-19T16:15:39.782Z,3.30
2022-11-19T16:18:17.725Z,3.37
2022-11-19T16:20:51.020Z,3.03
2022-11-19T16:23:25.732Z,3.90
2022-11-19T16:25:53.291Z,3.53
2022-11-19T16:28:25.921Z,2.97
2022-11-19T16:30:55.486Z,3.30
2022-11-19T16:33:24.945Z,3.33
2022-11-19T16:35:54.308Z,3.47
2022-11-19T16:38:28.685Z,2.80
2022-11-19T16:41:35.780Z,3.23
2022-11-19T16:44:11.181Z,3.10
2022-11-19T16:46:38.684Z,3.63
2022-11-19T16:49:32.062Z,3.20
2022-11-19T16:51:59.763Z,3.30
2022-11-19T16:54:48.625Z,3.33
2022-11-19T16:57:22.055Z,3.07
2022-11-19T16:59:51.628Z,3.40
2022-11-19T17:02:21.384Z,3.40
2022-11-19T17:04:55.546Z,3.17
2022-11-19T17:07:29.144Z,3.30
2022-11-19T17:10:31.262Z,3.33
2022-11-19T17:12:59.996Z,3.10
2022-11-19T17:15:41.837Z,3.47
2022-11-19T17:18:21.962Z,3.53
2022-11-19T17:20:56.912Z,3.80
2022-11-19T17:23:26.530Z,3.50
2022-11-19T17:26:00.184Z,3.63
2022-11-19T17:28:49.290Z,3.70
2022-11-19T17:31:29.876Z,3.57
2022-11-19T17:34:14.986Z,3.40
2022-11-19T17:36:42.711Z,3.40
2022-11-19T17:39:11.951Z,3.67
2022-11-19T17:41:58.343Z,3.50
2022-11-19T17:44:34.490Z,3.43
2022-11-19T17:47:21.233Z,3.40
2022-11-19T17:49:49.136Z,3.50
2022-11-19T17:52:27.658Z,3.33
2022-11-19T17:54:58.148Z,3.43
2022-11-19T17:57:25.124Z,3.13
2022-11-19T17:59:52.250Z,3.50
2022-11-19T18:02:20.615Z,3.57
2022-11-19T18:04:48.566Z,3.30
2022-11-19T18:07:15.947Z,3.37
2022-11-19T18:09:45.005Z,3.47
2022-11-19T18:12:31.952Z,3.77
2022-11-19T18:15:02.173Z,3.73
2022-11-19T18:17:29.478Z,3.60
2022-11-19T18:19:56.443Z,3.70
2022-11-19T18:22:23.533Z,3.50
2022-11-19T18:24:52.573Z,3.47
2022-11-19T18:27:19.344Z,3.70
2022-11-19T18:29:48.367Z,3.93
2022-11-19T18:32:17.211Z,3.57
2022-11-19T18:34:45.791Z,3.37
2022-11-19T18:37:12.859Z,3.70
2022-11-19T18:39:40.905Z,3.80
2022-11-19T18:42:10.712Z,3.87
2022-11-19T18:44:38.870Z,3.60
2022-11-19T18:47:11.028Z,3.67
2022-11-19T18:49:38.797Z,3.70
2022-11-19T18:52:07.981Z,3.67
2022-11-19T18:54:34.953Z,3.50
2022-11-19T18:57:02.662Z,3.73
2022-11-19T18:59:30.067Z,3.60
2022-11-19T19:01:57.268Z,3.83
2022-11-19T19:04:24.326Z,3.67
2022-11-19T19:06:51.403Z,3.60
2022-11-19T19:09:22.102Z,3.60
2022-11-19T19:12:13.160Z,3.73
2022-11-19T19:14:41.469Z,3.73
2022-11-19T19:17:10.492Z,3.60
2022-11-19T19:19:37.545Z,3.30
2022-11-19T19:22:05.122Z,3.40
2022-11-19T19:24:32.502Z,3.47
2022-11-19T19:27:00.637Z,3.53
2022-11-19T19:29:27.969Z,3.30
2022-11-19T19:31:54.749Z,3.47
2022-11-19T19:34:21.569Z,3.70
2022-11-19T19:36:52.906Z,3.80
2022-11-19T19:39:20.422Z,3.53
2022-11-19T19:41:47.267Z,3.63
2022-11-19T19:44:14.219Z,3.57
2022-11-19T19:46:46.567Z,3.60
2022-11-19T19:49:13.559Z,3.57
2022-11-19T19:51:40.377Z,3.67
2022-11-19T19:54:07.211Z,4.00
2022-11-19T19:56:34.237Z,4.07
2022-11-19T19:59:02.536Z,3.93
2022-11-19T20:01:32.094Z,3.50
2022-11-19T20:04:05.307Z,3.67
2022-11-19T20:06:32.962Z,3.50
2022-11-19T20:09:02.168Z,3.97
2022-11-19T20:11:33.627Z,4.00
2022-11-19T20:14:00.809Z,3.37
2022-11-19T20:16:31.292Z,3.87
2022-11-19T20:18:59.928Z,3.23
2022-11-19T20:21:29.201Z,3.80
2022-11-19T20:23:56.224Z,3.70
2022-11-19T20:26:28.391Z,3.87
2022-11-19T20:29:01.755Z,3.83
2022-11-19T20:31:30.835Z,3.20
2022-11-19T20:34:02.614Z,3.30
2022-11-19T20:36:31.747Z,3.33
2022-11-19T20:38:58.949Z,3.43
2022-11-19T20:41:48.368Z,3.40
2022-11-19T20:44:25.794Z,3.73
2022-11-19T20:47:06.065Z,3.60
2022-11-19T20:49:41.656Z,3.30
2022-11-19T20:52:31.629Z,3.50
2022-11-19T20:55:02.288Z,3.43
2022-11-19T20:57:32.636Z,3.43
2022-11-19T21:00:00.337Z,3.90
2022-11-19T21:02:27.130Z,3.80
2022-11-19T21:04:58.466Z,3.60
2022-11-19T21:07:25.450Z,3.70
2022-11-19T21:09:52.594Z,3.83
2022-11-19T21:12:19.333Z,3.23
2022-11-19T21:14:49.104Z,3.77
2022-11-19T21:17:16.061Z,3.47
2022-11-19T21:19:45.797Z,3.80
2022-11-19T21:22:12.571Z,3.70
2022-11-19T21:24:39.503Z,3.87
2022-11-19T21:27:08.403Z,3.13
2022-11-19T21:29:35.861Z,3.60
2022-11-19T21:32:03.939Z,3.53
2022-11-19T21:34:30.627Z,3.27
2022-11-19T21:36:59.531Z,3.57
2022-11-19T21:39:26.451Z,3.30
2022-11-19T21:41:53.151Z,3.23
2022-11-19T21:44:21.941Z,3.23
2022-11-19T21:46:49.159Z,2.80
2022-11-19T21:49:15.891Z,3.37
2022-11-19T21:51:43.291Z,3.13
2022-11-19T21:54:10.456Z,3.33
2022-11-19T21:56:38.950Z,3.23
2022-11-19T21:59:07.656Z,2.93
2022-11-19T22:01:34.674Z,2.97
2022-11-19T22:04:01.635Z,3.50
2022-11-19T22:06:28.383Z,3.30
2022-11-19T22:08:55.461Z,2.83
2022-11-19T22:11:32.028Z,2.90
2022-11-19T22:14:04.714Z,3.10
2022-11-19T22:16:34.140Z,2.90
2022-11-19T22:19:01.041Z,3.30
2022-11-19T22:21:29.403Z,2.87
2022-11-19T22:23:56.457Z,3.27
2022-11-19T22:26:23.458Z,3.13
2022-11-19T22:28:50.534Z,3.10
2022-11-19T22:31:17.312Z,3.00
2022-11-19T22:33:44.040Z,3.00
2022-11-19T22:36:11.975Z,3.27
2022-11-19T22:38:39.605Z,2.73
2022-11-19T22:41:11.083Z,2.67
2022-11-19T22:43:38.485Z,3.20
2022-11-19T22:46:08.179Z,3.00
2022-11-19T22:48:35.540Z,3.07
2022-11-19T22:51:31.812Z,2.97
2022-11-19T22:53:58.503Z,2.77
2022-11-19T22:56:30.568Z,2.40
2022-11-19T22:58:59.366Z,3.13
2022-11-19T23:01:28.776Z,2.93
2022-11-19T23:03:57.134Z,2.67
2022-11-19T23:06:24.914Z,2.87
2022-11-19T23:08:52.413Z,2.70
2022-11-19T23:11:42.669Z,2.70
2022-11-19T23:14:13.409Z,2.53
2022-11-19T23:16:41.165Z,2.33
2022-11-19T23:19:11.727Z,3.00
2022-11-19T23:21:39.552Z,2.40
2022-11-19T23:24:06.990Z,2.60
2022-11-19T23:26:34.226Z,2.30
2022-11-19T23:29:02.239Z,2.40
2022-11-19T23:31:39.985Z,2.77
2022-11-19T23:34:07.815Z,2.53
2022-11-19T23:36:38.859Z,2.47
2022-11-19T23:39:10.244Z,2.70
2022-11-19T23:41:37.176Z,2.70
2022-11-19T23:44:04.050Z,2.47
2022-11-19T23:46:33.556Z,2.50
2022-11-19T23:49:01.152Z,2.60
2022-11-19T23:51:33.585Z,2.67
2022-11-19T23:54:00.974Z,2.97
2022-11-19T23:56:30.380Z,2.73
2022-11-19T23:58:58.219Z,2.67
